sensor_id;sensor_type;location;lat;lon;timestamp;P1;durP1;ratioP1;P2;durP2;ratioP2
4642;SDS011;2334;48.710;9.622;2022-12-24T00:01:30;2.00;;;1.37;;
4642;SDS011;2334;48.710;9.622;2022-12-24T00:03:57;1.13;;;1.03;;
4642;SDS011;2334;48.710;9.622;2022-12-24T00:06:24;2.80;;;0.90;;
4642;SDS011;2334;48.710;9.622;2022-12-24T00:08:51;6.10;;;1.20;;
4642;SDS011;2334;48.710;9.622;2022-12-24T00:11:18;2.10;;;1.13;;
4642;SDS011;2334;48.710;9.622;2022-12-24T00:13:47;6.53;;;1.13;;
4642;SDS011;2334;48.710;9.622;2022-12-24T00:16:14;2.00;;;1.00;;
4642;SDS011;2334;48.710;9.622;2022-12-24T00:18:41;1.23;;;1.00;;
4642;SDS011;2334;48.710;9.622;2022-12-24T00:21:08;4.70;;;1.30;;
4642;SDS011;2334;48.710;9.622;2022-12-24T00:23:35;1.87;;;1.20;;
4642;SDS011;2334;48.710;9.622;2022-12-24T00:26:01;0.70;;;0.70;;
4642;SDS011;2334;48.710;9.622;2022-12-24T00:28:28;2.73;;;1.00;;
4642;SDS011;2334;48.710;9.622;2022-12-24T00:30:57;1.30;;;0.97;;
4642;SDS011;2334;48.710;9.622;2022-12-24T00:33:23;7.93;;;1.20;;
4642;SDS011;2334;48.710;9.622;2022-12-24T00:35:51;1.43;;;1.33;;
4642;SDS011;2334;48.710;9.622;2022-12-24T00:38:19;2.30;;;1.03;;
4642;SDS011;2334;48.710;9.622;2022-12-24T00:40:45;4.53;;;2.17;;
4642;SDS011;2334;48.710;9.622;2022-12-24T00:43:12;4.97;;;1.33;;
4642;SDS011;2334;48.710;9.622;2022-12-24T00:45:39;8.00;;;2.00;;
4642;SDS011;2334;48.710;9.622;2022-12-24T00:48:07;3.57;;;1.27;;
4642;SDS011;2334;48.710;9.622;2022-12-24T00:50:34;1.60;;;1.30;;
4642;SDS011;2334;48.710;9.622;2022-12-24T00:53:01;5.50;;;1.13;;
4642;SDS011;2334;48.710;9.622;2022-12-24T00:55:28;2.13;;;1.00;;
4642;SDS011;2334;48.710;9.622;2022-12-24T00:57:55;3.40;;;0.90;;
4642;SDS011;2334;48.710;9.622;2022-12-24T01:00:22;5.67;;;1.20;;
4642;SDS011;2334;48.710;9.622;2022-12-24T01:02:49;3.23;;;1.30;;
4642;SDS011;2334;48.710;9.622;2022-12-24T01:05:17;7.00;;;1.40;;
4642;SDS011;2334;48.710;9.622;2022-12-24T01:07:45;1.50;;;1.20;;
4642;SDS011;2334;48.710;9.622;2022-12-24T01:10:13;8.90;;;1.20;;
4642;SDS011;2334;48.710;9.622;2022-12-24T01:12:43;2.67;;;1.13;;
4642;SDS011;2334;48.710;9.622;2022-12-24T01:15:10;4.60;;;1.63;;
4642;SDS011;2334;48.710;9.622;2022-12-24T01:17:39;0.80;;;0.80;;
4642;SDS011;2334;48.710;9.622;2022-12-24T01:20:07;5.30;;;0.97;;
4642;SDS011;2334;48.710;9.622;2022-12-24T01:22:38;5.10;;;1.33;;
4642;SDS011;2334;48.710;9.622;2022-12-24T01:25:05;5.53;;;1.03;;
4642;SDS011;2334;48.710;9.622;2022-12-24T01:27:32;2.60;;;1.33;;
4642;SDS011;2334;48.710;9.622;2022-12-24T01:29:59;4.97;;;1.23;;
4642;SDS011;2334;48.710;9.622;2022-12-24T01:32:26;3.37;;;1.30;;
4642;SDS011;2334;48.710;9.622;2022-12-24T01:34:53;1.40;;;1.03;;
4642;SDS011;2334;48.710;9.622;2022-12-24T01:37:20;3.27;;;0.90;;
4642;SDS011;2334;48.710;9.622;2022-12-24T01:39:48;5.70;;;1.40;;
4642;SDS011;2334;48.710;9.622;2022-12-24T01:42:16;5.47;;;1.23;;
4642;SDS011;2334;48.710;9.622;2022-12-24T01:45:34;4.57;;;1.37;;
4642;SDS011;2334;48.710;9.622;2022-12-24T01:48:11;3.83;;;1.00;;
4642;SDS011;2334;48.710;9.622;2022-12-24T01:50:42;1.30;;;1.20;;
4642;SDS011;2334;48.710;9.622;2022-12-24T01:53:10;2.63;;;1.47;;
4642;SDS011;2334;48.710;9.622;2022-12-24T01:55:40;3.00;;;1.17;;
4642;SDS011;2334;48.710;9.622;2022-12-24T01:58:07;15.20;;;1.63;;
4642;SDS011;2334;48.710;9.622;2022-12-24T02:00:36;5.00;;;1.20;;
4642;SDS011;2334;48.710;9.622;2022-12-24T02:03:03;2.13;;;1.40;;
4642;SDS011;2334;48.710;9.622;2022-12-24T02:05:31;1.57;;;0.80;;
4642;SDS011;2334;48.710;9.622;2022-12-24T02:08:02;6.77;;;1.30;;
4642;SDS011;2334;48.710;9.622;2022-12-24T02:10:30;2.80;;;1.00;;
4642;SDS011;2334;48.710;9.622;2022-12-24T02:12:59;3.73;;;2.00;;
4642;SDS011;2334;48.710;9.622;2022-12-24T02:15:28;6.27;;;1.37;;
4642;SDS011;2334;48.710;9.622;2022-12-24T02:18:04;2.07;;;1.13;;
4642;SDS011;2334;48.710;9.622;2022-12-24T02:20:52;2.27;;;0.93;;
4642;SDS011;2334;48.710;9.622;2022-12-24T02:26:54;6.67;;;1.07;;
4642;SDS011;2334;48.710;9.622;2022-12-24T02:32:32;3.60;;;1.23;;
4642;SDS011;2334;48.710;9.622;2022-12-24T02:35:15;2.00;;;1.30;;
4642;SDS011;2334;48.710;9.622;2022-12-24T02:37:47;8.83;;;1.20;;
4642;SDS011;2334;48.710;9.622;2022-12-24T02:40:18;3.83;;;1.33;;
4642;SDS011;2334;48.710;9.622;2022-12-24T02:42:49;6.43;;;1.50;;
4642;SDS011;2334;48.710;9.622;2022-12-24T02:45:21;5.87;;;1.00;;
4642;SDS011;2334;48.710;9.622;2022-12-24T02:47:51;5.10;;;1.47;;
4642;SDS011;2334;48.710;9.622;2022-12-24T02:50:20;10.90;;;1.17;;
4642;SDS011;2334;48.710;9.622;2022-12-24T02:52:47;1.20;;;1.10;;
4642;SDS011;2334;48.710;9.622;2022-12-24T02:55:15;5.43;;;0.90;;
4642;SDS011;2334;48.710;9.622;2022-12-24T02:57:50;5.40;;;1.60;;
4642;SDS011;2334;48.710;9.622;2022-12-24T03:00:28;1.73;;;1.10;;
4642;SDS011;2334;48.710;9.622;2022-12-24T03:03:07;3.40;;;1.00;;
4642;SDS011;2334;48.710;9.622;2022-12-24T03:05:48;6.43;;;1.23;;
4642;SDS011;2334;48.710;9.622;2022-12-24T03:08:20;4.23;;;1.30;;
4642;SDS011;2334;48.710;9.622;2022-12-24T03:10:59;1.57;;;0.97;;
4642;SDS011;2334;48.710;9.622;2022-12-24T03:13:28;9.23;;;1.20;;
4642;SDS011;2334;48.710;9.622;2022-12-24T03:15:57;11.17;;;1.20;;
4642;SDS011;2334;48.710;9.622;2022-12-24T03:18:24;3.47;;;1.07;;
4642;SDS011;2334;48.710;9.622;2022-12-24T03:20:53;1.07;;;0.97;;
4642;SDS011;2334;48.710;9.622;2022-12-24T03:23:25;4.30;;;1.20;;
4642;SDS011;2334;48.710;9.622;2022-12-24T03:25:52;5.33;;;1.43;;
4642;SDS011;2334;48.710;9.622;2022-12-24T03:28:20;16.23;;;2.70;;
4642;SDS011;2334;48.710;9.622;2022-12-24T03:30:52;5.50;;;1.63;;
4642;SDS011;2334;48.710;9.622;2022-12-24T03:33:21;9.93;;;1.33;;
4642;SDS011;2334;48.710;9.622;2022-12-24T03:35:48;4.43;;;1.30;;
4642;SDS011;2334;48.710;9.622;2022-12-24T03:38:14;2.30;;;1.10;;
4642;SDS011;2334;48.710;9.622;2022-12-24T03:40:41;4.27;;;1.53;;
4642;SDS011;2334;48.710;9.622;2022-12-24T03:43:08;4.13;;;1.40;;
4642;SDS011;2334;48.710;9.622;2022-12-24T03:45:35;5.37;;;1.90;;
4642;SDS011;2334;48.710;9.622;2022-12-24T03:48:02;4.30;;;1.40;;
4642;SDS011;2334;48.710;9.622;2022-12-24T03:50:30;5.50;;;1.50;;
4642;SDS011;2334;48.710;9.622;2022-12-24T03:52:57;9.63;;;1.30;;
4642;SDS011;2334;48.710;9.622;2022-12-24T03:55:24;2.47;;;1.30;;
4642;SDS011;2334;48.710;9.622;2022-12-24T03:57:51;6.50;;;1.20;;
4642;SDS011;2334;48.710;9.622;2022-12-24T04:00:18;2.57;;;1.17;;
4642;SDS011;2334;48.710;9.622;2022-12-24T04:02:46;1.83;;;0.90;;
4642;SDS011;2334;48.710;9.622;2022-12-24T04:05:13;1.97;;;1.70;;
4642;SDS011;2334;48.710;9.622;2022-12-24T04:07:43;6.83;;;1.40;;
4642;SDS011;2334;48.710;9.622;2022-12-24T04:10:10;7.40;;;1.67;;
4642;SDS011;2334;48.710;9.622;2022-12-24T04:12:37;3.77;;;1.70;;
4642;SDS011;2334;48.710;9.622;2022-12-24T04:15:05;7.03;;;2.50;;
4642;SDS011;2334;48.710;9.622;2022-12-24T04:17:33;13.93;;;1.83;;
4642;SDS011;2334;48.710;9.622;2022-12-24T04:19:59;8.40;;;2.30;;
4642;SDS011;2334;48.710;9.622;2022-12-24T04:22:26;3.40;;;1.87;;
4642;SDS011;2334;48.710;9.622;2022-12-24T04:24:55;3.30;;;1.20;;
4642;SDS011;2334;48.710;9.622;2022-12-24T04:27:21;7.63;;;1.40;;
4642;SDS011;2334;48.710;9.622;2022-12-24T04:29:48;6.60;;;1.00;;
4642;SDS011;2334;48.710;9.622;2022-12-24T04:32:15;2.50;;;2.17;;
4642;SDS011;2334;48.710;9.622;2022-12-24T04:34:42;5.10;;;1.47;;
4642;SDS011;2334;48.710;9.622;2022-12-24T04:37:09;5.60;;;1.50;;
4642;SDS011;2334;48.710;9.622;2022-12-24T04:39:36;3.27;;;1.37;;
4642;SDS011;2334;48.710;9.622;2022-12-24T04:42:04;7.77;;;2.00;;
4642;SDS011;2334;48.710;9.622;2022-12-24T04:44:31;3.87;;;1.57;;
4642;SDS011;2334;48.710;9.622;2022-12-24T04:46:58;5.80;;;1.90;;
4642;SDS011;2334;48.710;9.622;2022-12-24T04:49:25;12.93;;;2.53;;
4642;SDS011;2334;48.710;9.622;2022-12-24T04:51:51;4.17;;;1.70;;
4642;SDS011;2334;48.710;9.622;2022-12-24T04:54:18;2.33;;;1.40;;
4642;SDS011;2334;48.710;9.622;2022-12-24T04:56:45;3.30;;;1.53;;
4642;SDS011;2334;48.710;9.622;2022-12-24T04:59:13;4.47;;;1.57;;
4642;SDS011;2334;48.710;9.622;2022-12-24T05:01:40;2.90;;;1.37;;
4642;SDS011;2334;48.710;9.622;2022-12-24T05:04:07;7.83;;;2.30;;
4642;SDS011;2334;48.710;9.622;2022-12-24T05:06:35;8.80;;;1.50;;
4642;SDS011;2334;48.710;9.622;2022-12-24T05:09:02;6.67;;;1.80;;
4642;SDS011;2334;48.710;9.622;2022-12-24T05:11:29;3.00;;;1.60;;
4642;SDS011;2334;48.710;9.622;2022-12-24T05:13:56;4.77;;;2.07;;
4642;SDS011;2334;48.710;9.622;2022-12-24T05:16:25;20.27;;;2.27;;
4642;SDS011;2334;48.710;9.622;2022-12-24T05:18:51;1.83;;;1.63;;
4642;SDS011;2334;48.710;9.622;2022-12-24T05:21:19;8.13;;;2.37;;
4642;SDS011;2334;48.710;9.622;2022-12-24T05:23:47;7.77;;;1.70;;
4642;SDS011;2334;48.710;9.622;2022-12-24T05:26:32;2.13;;;1.43;;
4642;SDS011;2334;48.710;9.622;2022-12-24T05:29:03;3.20;;;1.60;;
4642;SDS011;2334;48.710;9.622;2022-12-24T05:31:32;4.67;;;2.03;;
4642;SDS011;2334;48.710;9.622;2022-12-24T05:34:00;4.47;;;1.57;;
4642;SDS011;2334;48.710;9.622;2022-12-24T05:36:27;3.00;;;1.70;;
4642;SDS011;2334;48.710;9.622;2022-12-24T05:38:54;3.10;;;1.90;;
4642;SDS011;2334;48.710;9.622;2022-12-24T05:41:21;4.50;;;1.30;;
4642;SDS011;2334;48.710;9.622;2022-12-24T05:43:48;3.67;;;1.40;;
4642;SDS011;2334;48.710;9.622;2022-12-24T05:46:16;3.27;;;1.20;;
4642;SDS011;2334;48.710;9.622;2022-12-24T05:48:46;3.30;;;1.10;;
4642;SDS011;2334;48.710;9.622;2022-12-24T05:51:13;4.40;;;1.80;;
4642;SDS011;2334;48.710;9.622;2022-12-24T05:53:43;2.57;;;1.17;;
4642;SDS011;2334;48.710;9.622;2022-12-24T05:56:12;3.73;;;1.50;;
4642;SDS011;2334;48.710;9.622;2022-12-24T05:58:41;7.10;;;1.93;;
4642;SDS011;2334;48.710;9.622;2022-12-24T06:01:08;6.80;;;1.60;;
4642;SDS011;2334;48.710;9.622;2022-12-24T06:03:35;4.27;;;1.27;;
4642;SDS011;2334;48.710;9.622;2022-12-24T06:06:04;1.40;;;1.30;;
4642;SDS011;2334;48.710;9.622;2022-12-24T06:08:33;7.23;;;2.00;;
4642;SDS011;2334;48.710;9.622;2022-12-24T06:11:01;2.20;;;1.57;;
4642;SDS011;2334;48.710;9.622;2022-12-24T06:13:30;2.60;;;1.37;;
4642;SDS011;2334;48.710;9.622;2022-12-24T06:15:57;3.40;;;1.93;;
4642;SDS011;2334;48.710;9.622;2022-12-24T06:18:27;3.53;;;1.73;;
4642;SDS011;2334;48.710;9.622;2022-12-24T06:20:55;11.17;;;1.63;;
4642;SDS011;2334;48.710;9.622;2022-12-24T06:23:24;6.47;;;1.30;;
4642;SDS011;2334;48.710;9.622;2022-12-24T06:25:54;1.97;;;1.40;;
4642;SDS011;2334;48.710;9.622;2022-12-24T06:28:22;2.47;;;1.63;;
4642;SDS011;2334;48.710;9.622;2022-12-24T06:30:49;3.80;;;1.47;;
4642;SDS011;2334;48.710;9.622;2022-12-24T06:33:16;2.43;;;1.60;;
4642;SDS011;2334;48.710;9.622;2022-12-24T06:35:44;2.93;;;1.47;;
4642;SDS011;2334;48.710;9.622;2022-12-24T06:38:11;3.50;;;2.00;;
4642;SDS011;2334;48.710;9.622;2022-12-24T06:40:40;1.53;;;1.40;;
4642;SDS011;2334;48.710;9.622;2022-12-24T06:43:08;2.13;;;1.73;;
4642;SDS011;2334;48.710;9.622;2022-12-24T06:45:36;3.00;;;1.20;;
4642;SDS011;2334;48.710;9.622;2022-12-24T06:48:03;5.80;;;1.87;;
4642;SDS011;2334;48.710;9.622;2022-12-24T06:50:31;6.27;;;3.23;;
4642;SDS011;2334;48.710;9.622;2022-12-24T06:52:59;5.50;;;3.33;;
4642;SDS011;2334;48.710;9.622;2022-12-24T06:55:25;5.23;;;2.43;;
4642;SDS011;2334;48.710;9.622;2022-12-24T06:57:54;5.33;;;2.60;;
4642;SDS011;2334;48.710;9.622;2022-12-24T07:00:21;2.93;;;2.63;;
4642;SDS011;2334;48.710;9.622;2022-12-24T07:02:48;15.13;;;3.00;;
4642;SDS011;2334;48.710;9.622;2022-12-24T07:05:15;5.20;;;2.70;;
4642;SDS011;2334;48.710;9.622;2022-12-24T07:07:43;4.53;;;2.53;;
4642;SDS011;2334;48.710;9.622;2022-12-24T07:10:10;7.60;;;2.37;;
4642;SDS011;2334;48.710;9.622;2022-12-24T07:12:39;6.03;;;2.83;;
4642;SDS011;2334;48.710;9.622;2022-12-24T07:15:08;8.00;;;2.20;;
4642;SDS011;2334;48.710;9.622;2022-12-24T07:17:36;3.23;;;2.57;;
4642;SDS011;2334;48.710;9.622;2022-12-24T07:20:03;8.70;;;3.03;;
4642;SDS011;2334;48.710;9.622;2022-12-24T07:22:31;6.13;;;3.03;;
4642;SDS011;2334;48.710;9.622;2022-12-24T07:24:58;4.33;;;2.40;;
4642;SDS011;2334;48.710;9.622;2022-12-24T07:27:25;3.30;;;2.70;;
4642;SDS011;2334;48.710;9.622;2022-12-24T07:29:52;6.03;;;2.73;;
4642;SDS011;2334;48.710;9.622;2022-12-24T07:32:22;3.30;;;2.17;;
4642;SDS011;2334;48.710;9.622;2022-12-24T07:34:49;7.10;;;2.30;;
4642;SDS011;2334;48.710;9.622;2022-12-24T07:37:16;3.43;;;2.40;;
4642;SDS011;2334;48.710;9.622;2022-12-24T07:39:43;8.47;;;2.83;;
4642;SDS011;2334;48.710;9.622;2022-12-24T07:42:10;4.93;;;2.90;;
4642;SDS011;2334;48.710;9.622;2022-12-24T07:44:37;6.00;;;3.10;;
4642;SDS011;2334;48.710;9.622;2022-12-24T07:47:04;6.17;;;2.93;;
4642;SDS011;2334;48.710;9.622;2022-12-24T07:49:32;8.00;;;4.10;;
4642;SDS011;2334;48.710;9.622;2022-12-24T07:52:00;7.17;;;4.00;;
4642;SDS011;2334;48.710;9.622;2022-12-24T07:54:27;6.77;;;4.17;;
4642;SDS011;2334;48.710;9.622;2022-12-24T07:56:54;5.47;;;2.67;;
4642;SDS011;2334;48.710;9.622;2022-12-24T07:59:21;4.80;;;3.30;;
4642;SDS011;2334;48.710;9.622;2022-12-24T08:01:47;6.67;;;4.10;;
4642;SDS011;2334;48.710;9.622;2022-12-24T08:04:14;9.07;;;3.70;;
4642;SDS011;2334;48.710;9.622;2022-12-24T08:06:42;8.90;;;2.80;;
4642;SDS011;2334;48.710;9.622;2022-12-24T08:09:09;5.50;;;3.47;;
4642;SDS011;2334;48.710;9.622;2022-12-24T08:11:38;6.10;;;3.23;;
4642;SDS011;2334;48.710;9.622;2022-12-24T08:14:05;7.23;;;2.73;;
4642;SDS011;2334;48.710;9.622;2022-12-24T08:16:32;5.57;;;2.77;;
4642;SDS011;2334;48.710;9.622;2022-12-24T08:18:58;4.73;;;2.73;;
4642;SDS011;2334;48.710;9.622;2022-12-24T08:21:25;6.13;;;4.10;;
4642;SDS011;2334;48.710;9.622;2022-12-24T08:23:53;7.37;;;3.43;;
4642;SDS011;2334;48.710;9.622;2022-12-24T08:26:20;8.93;;;5.10;;
4642;SDS011;2334;48.710;9.622;2022-12-24T08:28:47;7.03;;;3.50;;
4642;SDS011;2334;48.710;9.622;2022-12-24T08:31:14;9.70;;;4.10;;
4642;SDS011;2334;48.710;9.622;2022-12-24T08:33:41;6.67;;;3.90;;
4642;SDS011;2334;48.710;9.622;2022-12-24T08:36:08;7.63;;;3.90;;
4642;SDS011;2334;48.710;9.622;2022-12-24T08:38:35;4.70;;;3.10;;
4642;SDS011;2334;48.710;9.622;2022-12-24T08:41:03;5.57;;;3.03;;
4642;SDS011;2334;48.710;9.622;2022-12-24T08:43:30;6.40;;;3.67;;
4642;SDS011;2334;48.710;9.622;2022-12-24T08:46:00;8.43;;;4.10;;
4642;SDS011;2334;48.710;9.622;2022-12-24T08:48:28;6.40;;;3.73;;
4642;SDS011;2334;48.710;9.622;2022-12-24T08:50:55;9.50;;;4.43;;
4642;SDS011;2334;48.710;9.622;2022-12-24T08:53:22;6.93;;;4.67;;
4642;SDS011;2334;48.710;9.622;2022-12-24T08:55:49;7.47;;;4.07;;
4642;SDS011;2334;48.710;9.622;2022-12-24T08:58:18;10.20;;;3.17;;
4642;SDS011;2334;48.710;9.622;2022-12-24T09:00:44;8.00;;;3.97;;
4642;SDS011;2334;48.710;9.622;2022-12-24T09:03:12;9.67;;;4.90;;
4642;SDS011;2334;48.710;9.622;2022-12-24T09:05:41;10.53;;;4.67;;
4642;SDS011;2334;48.710;9.622;2022-12-24T09:08:08;13.23;;;4.60;;
4642;SDS011;2334;48.710;9.622;2022-12-24T09:10:35;8.90;;;5.57;;
4642;SDS011;2334;48.710;9.622;2022-12-24T09:13:01;9.30;;;4.83;;
4642;SDS011;2334;48.710;9.622;2022-12-24T09:15:30;13.03;;;5.13;;
4642;SDS011;2334;48.710;9.622;2022-12-24T09:17:57;8.27;;;5.37;;
4642;SDS011;2334;48.710;9.622;2022-12-24T09:20:23;13.30;;;6.00;;
4642;SDS011;2334;48.710;9.622;2022-12-24T09:22:50;11.10;;;5.20;;
4642;SDS011;2334;48.710;9.622;2022-12-24T09:25:17;24.20;;;8.50;;
4642;SDS011;2334;48.710;9.622;2022-12-24T09:27:44;30.77;;;9.67;;
4642;SDS011;2334;48.710;9.622;2022-12-24T09:30:13;21.37;;;9.10;;
4642;SDS011;2334;48.710;9.622;2022-12-24T09:32:41;26.13;;;7.63;;
4642;SDS011;2334;48.710;9.622;2022-12-24T09:35:08;17.27;;;8.03;;
4642;SDS011;2334;48.710;9.622;2022-12-24T09:37:36;31.47;;;8.60;;
4642;SDS011;2334;48.710;9.622;2022-12-24T09:40:04;14.93;;;6.90;;
4642;SDS011;2334;48.710;9.622;2022-12-24T09:42:35;15.63;;;6.37;;
4642;SDS011;2334;48.710;9.622;2022-12-24T09:45:13;14.70;;;6.77;;
4642;SDS011;2334;48.710;9.622;2022-12-24T09:47:46;11.87;;;6.53;;
4642;SDS011;2334;48.710;9.622;2022-12-24T09:50:23;10.73;;;4.80;;
4642;SDS011;2334;48.710;9.622;2022-12-24T09:52:57;14.17;;;3.93;;
4642;SDS011;2334;48.710;9.622;2022-12-24T09:55:27;7.50;;;3.50;;
4642;SDS011;2334;48.710;9.622;2022-12-24T09:57:57;10.97;;;3.97;;
4642;SDS011;2334;48.710;9.622;2022-12-24T10:00:28;9.77;;;4.00;;
4642;SDS011;2334;48.710;9.622;2022-12-24T10:02:58;10.40;;;3.00;;
4642;SDS011;2334;48.710;9.622;2022-12-24T10:05:27;24.77;;;3.90;;
4642;SDS011;2334;48.710;9.622;2022-12-24T10:08:02;8.73;;;5.90;;
4642;SDS011;2334;48.710;9.622;2022-12-24T10:10:41;15.00;;;6.70;;
4642;SDS011;2334;48.710;9.622;2022-12-24T10:13:17;10.00;;;3.70;;
4642;SDS011;2334;48.710;9.622;2022-12-24T10:15:55;16.77;;;3.00;;
4642;SDS011;2334;48.710;9.622;2022-12-24T10:18:31;5.97;;;2.10;;
4642;SDS011;2334;48.710;9.622;2022-12-24T10:21:08;11.97;;;2.90;;
4642;SDS011;2334;48.710;9.622;2022-12-24T10:23:40;9.83;;;2.23;;
4642;SDS011;2334;48.710;9.622;2022-12-24T10:26:13;6.47;;;2.73;;
4642;SDS011;2334;48.710;9.622;2022-12-24T10:28:46;8.20;;;1.70;;
4642;SDS011;2334;48.710;9.622;2022-12-24T10:31:16;8.80;;;2.30;;
4642;SDS011;2334;48.710;9.622;2022-12-24T10:33:48;14.80;;;3.03;;
4642;SDS011;2334;48.710;9.622;2022-12-24T10:36:19;10.40;;;2.07;;
4642;SDS011;2334;48.710;9.622;2022-12-24T10:38:50;13.33;;;3.83;;
4642;SDS011;2334;48.710;9.622;2022-12-24T10:41:17;7.40;;;2.40;;
4642;SDS011;2334;48.710;9.622;2022-12-24T10:43:45;9.97;;;2.73;;
4642;SDS011;2334;48.710;9.622;2022-12-24T10:46:15;15.30;;;4.90;;
4642;SDS011;2334;48.710;9.622;2022-12-24T10:48:44;20.77;;;6.30;;
4642;SDS011;2334;48.710;9.622;2022-12-24T10:51:19;8.80;;;2.50;;
4642;SDS011;2334;48.710;9.622;2022-12-24T10:53:50;8.07;;;1.90;;
4642;SDS011;2334;48.710;9.622;2022-12-24T10:56:23;15.83;;;4.63;;
4642;SDS011;2334;48.710;9.622;2022-12-24T10:58:51;2.83;;;2.03;;
4642;SDS011;2334;48.710;9.622;2022-12-24T11:01:19;6.70;;;1.67;;
4642;SDS011;2334;48.710;9.622;2022-12-24T11:03:58;12.07;;;2.87;;
4642;SDS011;2334;48.710;9.622;2022-12-24T11:06:26;6.70;;;2.93;;
4642;SDS011;2334;48.710;9.622;2022-12-24T11:08:53;10.90;;;2.13;;
4642;SDS011;2334;48.710;9.622;2022-12-24T11:11:37;9.33;;;3.47;;
4642;SDS011;2334;48.710;9.622;2022-12-24T11:14:04;5.70;;;2.23;;
4642;SDS011;2334;48.710;9.622;2022-12-24T11:16:31;10.83;;;3.90;;
4642;SDS011;2334;48.710;9.622;2022-12-24T11:19:02;11.03;;;3.47;;
4642;SDS011;2334;48.710;9.622;2022-12-24T11:21:31;7.23;;;1.83;;
4642;SDS011;2334;48.710;9.622;2022-12-24T11:24:02;4.63;;;1.77;;
4642;SDS011;2334;48.710;9.622;2022-12-24T11:26:33;9.30;;;2.30;;
4642;SDS011;2334;48.710;9.622;2022-12-24T11:29:04;17.10;;;4.47;;
4642;SDS011;2334;48.710;9.622;2022-12-24T11:31:38;5.87;;;1.33;;
4642;SDS011;2334;48.710;9.622;2022-12-24T11:34:18;7.57;;;2.50;;
4642;SDS011;2334;48.710;9.622;2022-12-24T11:36:52;7.33;;;2.33;;
4642;SDS011;2334;48.710;9.622;2022-12-24T11:39:22;7.10;;;2.73;;
4642;SDS011;2334;48.710;9.622;2022-12-24T11:41:51;7.80;;;2.03;;
4642;SDS011;2334;48.710;9.622;2022-12-24T11:44:22;10.60;;;2.87;;
4642;SDS011;2334;48.710;9.622;2022-12-24T11:46:51;16.33;;;6.47;;
4642;SDS011;2334;48.710;9.622;2022-12-24T11:49:29;11.60;;;2.60;;
4642;SDS011;2334;48.710;9.622;2022-12-24T11:54:58;4.60;;;2.67;;
4642;SDS011;2334;48.710;9.622;2022-12-24T11:57:42;16.97;;;2.70;;
4642;SDS011;2334;48.710;9.622;2022-12-24T12:00:15;7.57;;;3.37;;
4642;SDS011;2334;48.710;9.622;2022-12-24T12:02:42;22.13;;;3.23;;
4642;SDS011;2334;48.710;9.622;2022-12-24T12:05:15;10.23;;;3.70;;
4642;SDS011;2334;48.710;9.622;2022-12-24T12:07:49;9.60;;;2.80;;
4642;SDS011;2334;48.710;9.622;2022-12-24T12:10:24;3.83;;;1.70;;
4642;SDS011;2334;48.710;9.622;2022-12-24T12:12:56;13.03;;;2.47;;
4642;SDS011;2334;48.710;9.622;2022-12-24T12:15:26;7.20;;;1.90;;
4642;SDS011;2334;48.710;9.622;2022-12-24T12:18:02;4.93;;;1.83;;
4642;SDS011;2334;48.710;9.622;2022-12-24T12:20:40;8.30;;;1.80;;
4642;SDS011;2334;48.710;9.622;2022-12-24T12:23:12;12.67;;;1.97;;
4642;SDS011;2334;48.710;9.622;2022-12-24T12:25:43;4.97;;;1.40;;
4642;SDS011;2334;48.710;9.622;2022-12-24T12:28:17;8.37;;;2.43;;
4642;SDS011;2334;48.710;9.622;2022-12-24T12:30:47;6.00;;;2.03;;
4642;SDS011;2334;48.710;9.622;2022-12-24T12:33:24;7.83;;;2.60;;
4642;SDS011;2334;48.710;9.622;2022-12-24T12:35:57;7.50;;;1.47;;
4642;SDS011;2334;48.710;9.622;2022-12-24T12:38:27;3.97;;;2.50;;
4642;SDS011;2334;48.710;9.622;2022-12-24T12:41:08;3.93;;;2.30;;
4642;SDS011;2334;48.710;9.622;2022-12-24T12:43:51;6.43;;;1.63;;
4642;SDS011;2334;48.710;9.622;2022-12-24T12:46:33;8.07;;;1.93;;
4642;SDS011;2334;48.710;9.622;2022-12-24T12:49:16;8.50;;;1.60;;
4642;SDS011;2334;48.710;9.622;2022-12-24T12:51:58;15.80;;;1.80;;
4642;SDS011;2334;48.710;9.622;2022-12-24T12:54:36;4.03;;;2.13;;
4642;SDS011;2334;48.710;9.622;2022-12-24T12:57:14;14.10;;;2.03;;
4642;SDS011;2334;48.710;9.622;2022-12-24T12:59:45;5.97;;;2.50;;
4642;SDS011;2334;48.710;9.622;2022-12-24T13:02:22;13.10;;;2.50;;
4642;SDS011;2334;48.710;9.622;2022-12-24T13:08:37;10.27;;;2.90;;
4642;SDS011;2334;48.710;9.622;2022-12-24T13:11:27;9.37;;;2.70;;
4642;SDS011;2334;48.710;9.622;2022-12-24T13:17:28;5.83;;;3.40;;
4642;SDS011;2334;48.710;9.622;2022-12-24T13:20:23;16.57;;;4.57;;
4642;SDS011;2334;48.710;9.622;2022-12-24T13:22:55;6.83;;;1.70;;
4642;SDS011;2334;48.710;9.622;2022-12-24T13:25:32;12.73;;;4.10;;
4642;SDS011;2334;48.710;9.622;2022-12-24T13:28:14;9.37;;;2.60;;
4642;SDS011;2334;48.710;9.622;2022-12-24T13:31:20;5.63;;;2.47;;
4642;SDS011;2334;48.710;9.622;2022-12-24T13:33:52;8.03;;;2.33;;
4642;SDS011;2334;48.710;9.622;2022-12-24T13:36:21;10.13;;;1.83;;
4642;SDS011;2334;48.710;9.622;2022-12-24T13:38:48;9.90;;;2.20;;
4642;SDS011;2334;48.710;9.622;2022-12-24T13:44:22;11.30;;;3.40;;
4642;SDS011;2334;48.710;9.622;2022-12-24T13:47:01;8.60;;;3.13;;
4642;SDS011;2334;48.710;9.622;2022-12-24T13:49:32;5.10;;;2.00;;
4642;SDS011;2334;48.710;9.622;2022-12-24T13:52:04;11.73;;;3.30;;
4642;SDS011;2334;48.710;9.622;2022-12-24T13:54:59;9.53;;;3.57;;
4642;SDS011;2334;48.710;9.622;2022-12-24T13:57:34;10.33;;;2.67;;
4642;SDS011;2334;48.710;9.622;2022-12-24T14:00:06;9.47;;;2.47;;
4642;SDS011;2334;48.710;9.622;2022-12-24T14:02:50;9.43;;;2.50;;
4642;SDS011;2334;48.710;9.622;2022-12-24T14:05:21;15.53;;;7.40;;
4642;SDS011;2334;48.710;9.622;2022-12-24T14:07:53;32.60;;;8.00;;
4642;SDS011;2334;48.710;9.622;2022-12-24T14:10:22;101.43;;;30.07;;
4642;SDS011;2334;48.710;9.622;2022-12-24T14:12:51;55.50;;;17.67;;
4642;SDS011;2334;48.710;9.622;2022-12-24T14:18:25;25.00;;;8.23;;
4642;SDS011;2334;48.710;9.622;2022-12-24T14:20:54;20.93;;;6.03;;
4642;SDS011;2334;48.710;9.622;2022-12-24T14:23:27;13.00;;;4.50;;
4642;SDS011;2334;48.710;9.622;2022-12-24T14:25:59;14.33;;;3.80;;
4642;SDS011;2334;48.710;9.622;2022-12-24T14:28:29;10.80;;;2.40;;
4642;SDS011;2334;48.710;9.622;2022-12-24T14:31:01;7.10;;;1.87;;
4642;SDS011;2334;48.710;9.622;2022-12-24T14:33:31;9.93;;;2.80;;
4642;SDS011;2334;48.710;9.622;2022-12-24T14:36:00;8.90;;;2.60;;
4642;SDS011;2334;48.710;9.622;2022-12-24T14:38:28;7.73;;;2.53;;
4642;SDS011;2334;48.710;9.622;2022-12-24T14:40:58;8.93;;;1.67;;
4642;SDS011;2334;48.710;9.622;2022-12-24T14:43:34;4.07;;;1.53;;
4642;SDS011;2334;48.710;9.622;2022-12-24T14:46:21;5.27;;;1.53;;
4642;SDS011;2334;48.710;9.622;2022-12-24T14:48:53;2.73;;;1.70;;
4642;SDS011;2334;48.710;9.622;2022-12-24T14:51:25;5.07;;;1.53;;
4642;SDS011;2334;48.710;9.622;2022-12-24T14:59:49;4.40;;;1.53;;
4642;SDS011;2334;48.710;9.622;2022-12-24T15:02:37;11.97;;;2.47;;
4642;SDS011;2334;48.710;9.622;2022-12-24T15:05:10;13.03;;;2.83;;
4642;SDS011;2334;48.710;9.622;2022-12-24T15:07:41;4.17;;;1.87;;
4642;SDS011;2334;48.710;9.622;2022-12-24T15:10:21;15.07;;;2.20;;
4642;SDS011;2334;48.710;9.622;2022-12-24T15:12:53;7.97;;;1.73;;
4642;SDS011;2334;48.710;9.622;2022-12-24T15:15:21;1.80;;;1.27;;
4642;SDS011;2334;48.710;9.622;2022-12-24T15:17:48;2.13;;;1.30;;
4642;SDS011;2334;48.710;9.622;2022-12-24T15:20:17;5.37;;;1.93;;
4642;SDS011;2334;48.710;9.622;2022-12-24T15:22:49;6.07;;;1.70;;
4642;SDS011;2334;48.710;9.622;2022-12-24T15:25:18;13.63;;;8.90;;
4642;SDS011;2334;48.710;9.622;2022-12-24T15:27:47;21.50;;;6.50;;
4642;SDS011;2334;48.710;9.622;2022-12-24T15:30:15;10.53;;;6.00;;
4642;SDS011;2334;48.710;9.622;2022-12-24T15:32:44;7.87;;;4.97;;
4642;SDS011;2334;48.710;9.622;2022-12-24T15:35:32;10.60;;;5.17;;
4642;SDS011;2334;48.710;9.622;2022-12-24T15:38:21;9.47;;;3.40;;
4642;SDS011;2334;48.710;9.622;2022-12-24T15:40:55;15.13;;;3.80;;
4642;SDS011;2334;48.710;9.622;2022-12-24T15:43:22;7.63;;;3.67;;
4642;SDS011;2334;48.710;9.622;2022-12-24T15:45:51;12.60;;;3.10;;
4642;SDS011;2334;48.710;9.622;2022-12-24T15:48:19;6.53;;;3.10;;
4642;SDS011;2334;48.710;9.622;2022-12-24T15:50:51;4.50;;;2.63;;
4642;SDS011;2334;48.710;9.622;2022-12-24T15:53:24;7.07;;;3.60;;
4642;SDS011;2334;48.710;9.622;2022-12-24T15:56:01;9.07;;;3.40;;
4642;SDS011;2334;48.710;9.622;2022-12-24T15:58:30;10.40;;;3.80;;
4642;SDS011;2334;48.710;9.622;2022-12-24T16:01:03;7.60;;;2.77;;